Time;durP1;ratioP1;P1;durP2;ratioP2;P2;SDS_P1;SDS_P2;PMS_P1;PMS_P2;Temp;Humidity;BMP_temperature;BMP_pressure;BME280_temperature;BME280_humidity;BME280_pressure;Samples;Min_cycle;Max_cycle;Signal;HPM_P1;HPM_P2
2022/11/12 00:02:14;;;;;;;26.90;14.50;;;;;;;9.93;84.33;101458.43;100264;1289;106502;-66
2022/11/12 00:05:01;;;;;;;27.90;14.90;;;;;;;9.92;84.44;101455.66;100084;1288;97791;-67
2022/11/12 00:07:47;;;;;;;22.50;14.00;;;;;;;9.92;84.39;101454.96;100093;1295;107256;-67
2022/11/12 00:10:33;;;;;;;19.40;13.50;;;;;;;9.92;84.30;101456.36;101413;1296;139301;-67
2022/11/12 00:13:19;;;;;;;25.60;13.90;;;;;;;9.91;84.31;101451.85;101529;1290;110192;-67
2022/11/12 00:16:06;;;;;;;22.60;14.10;;;;;;;9.91;84.39;101457.41;101326;1296;140325;-67
2022/11/12 00:18:52;;;;;;;22.20;13.50;;;;;;;9.91;84.38;101457.23;100685;1292;97859;-68
2022/11/12 00:21:38;;;;;;;21.50;13.90;;;;;;;9.89;84.26;101459.87;100046;1292;138673;-67
2022/11/12 00:24:23;;;;;;;20.60;13.40;;;;;;;9.90;84.39;101470.98;100160;1288;97790;-68
2022/11/12 00:27:10;;;;;;;21.50;13.50;;;;;;;9.90;84.49;101468.55;101408;1289;138480;-68
2022/11/12 00:29:56;;;;;;;21.10;13.00;;;;;;;9.91;84.45;101467.50;101492;1295;106722;-68
2022/11/12 00:32:41;;;;;;;21.30;13.30;;;;;;;9.92;84.54;101470.61;101439;1296;138976;-68
2022/11/12 00:35:27;;;;;;;22.30;12.80;;;;;;;9.94;84.55;101464.51;101500;1297;107870;-68
2022/11/12 00:38:13;;;;;;;22.50;13.10;;;;;;;9.95;84.51;101467.09;101542;1288;95926;-68
2022/11/12 00:41:02;;;;;;;23.00;13.60;;;;;;;9.98;84.40;101468.27;101469;1296;138432;-68
2022/11/12 00:43:47;;;;;;;19.80;12.80;;;;;;;9.99;84.30;101464.61;101507;1289;107476;-69
2022/11/12 00:46:32;;;;;;;22.60;13.90;;;;;;;10.00;84.29;101465.48;101457;1295;138468;-68
2022/11/12 00:49:18;;;;;;;22.30;14.20;;;;;;;9.98;84.25;101467.41;101504;1294;106919;-68
2022/11/12 00:52:04;;;;;;;24.60;13.50;;;;;;;9.97;84.28;101466.90;100893;1295;138760;-67
2022/11/12 00:54:50;;;;;;;21.60;12.60;;;;;;;9.99;84.34;101464.96;100135;1289;112025;-67
2022/11/12 00:57:36;;;;;;;21.00;13.70;;;;;;;10.01;84.53;101464.42;100017;1294;138656;-67
2022/11/12 01:00:22;;;;;;;21.10;12.80;;;;;;;10.04;84.45;101456.91;101582;1289;96157;-67
2022/11/12 01:03:08;;;;;;;20.00;12.00;;;;;;;10.03;84.22;101454.48;100958;1294;138820;-67
2022/11/12 01:05:54;;;;;;;23.20;12.50;;;;;;;10.04;84.38;101456.04;100100;1295;97924;-67
2022/11/12 01:08:41;;;;;;;21.30;12.80;;;;;;;10.06;84.34;101456.91;100044;1288;138414;-67
2022/11/12 01:11:29;;;;;;;17.60;12.00;;;;;;;10.07;84.22;101456.21;100108;1294;108277;-68
2022/11/12 01:14:15;;;;;;;19.20;12.50;;;;;;;10.07;84.27;101452.90;100130;1294;98621;-66
2022/11/12 01:17:01;;;;;;;22.20;13.30;;;;;;;10.05;84.34;101451.34;100128;1290;107715;-65
2022/11/12 01:19:47;;;;;;;19.40;13.30;;;;;;;10.02;84.28;101445.48;100109;1288;98312;-68
2022/11/12 01:22:33;;;;;;;20.10;13.20;;;;;;;9.98;84.27;101447.43;100014;1281;138806;-67
2022/11/12 01:25:20;;;;;;;19.70;12.50;;;;;;;9.95;84.33;101443.30;100113;1294;107127;-67
2022/11/12 01:28:05;;;;;;;20.70;12.40;;;;;;;9.96;84.46;101443.11;100018;1288;138629;-65
2022/11/12 01:30:52;;;;;;;21.30;12.40;;;;;;;9.95;84.54;101444.35;100014;1285;108567;-66
2022/11/12 01:33:38;;;;;;;21.20;12.10;;;;;;;9.96;84.64;101446.06;99987;1288;139200;-67
2022/11/12 01:36:25;;;;;;;23.50;13.50;;;;;;;9.98;84.79;101446.20;100054;1294;113726;-66
2022/11/12 01:39:11;;;;;;;19.60;12.80;;;;;;;10.00;84.75;101448.63;99941;1288;138869;-66
2022/11/12 01:41:57;;;;;;;20.50;12.00;;;;;;;10.04;84.84;101447.70;100077;1286;97851;-66
2022/11/12 01:44:47;;;;;;;21.50;12.40;;;;;;;10.07;84.67;101453.77;99986;1294;138861;-66
2022/11/12 01:47:36;;;;;;;19.80;12.20;;;;;;;10.10;84.67;101453.40;100051;1288;98153;-66
2022/11/12 01:50:27;;;;;;;20.00;12.20;;;;;;;10.09;84.66;101455.14;100070;1295;110558;-66
2022/11/12 01:53:14;;;;;;;21.30;12.80;;;;;;;10.11;84.58;101460.85;100030;1292;108354;-66
2022/11/12 01:55:59;;;;;;;;;;;;;;;10.11;84.51;101460.33;101546;1294;96053;-66
2022/11/12 01:58:49;;;;;;;20.90;12.80;;;;;;;10.12;84.61;101463.10;101447;1297;125206;-66
2022/11/12 02:01:36;;;;;;;23.70;12.70;;;;;;;10.13;84.53;101460.30;101253;1295;95864;-67
2022/11/12 02:04:23;;;;;;;22.10;12.50;;;;;;;10.14;84.48;101459.60;100007;1282;138584;-66
2022/11/12 02:07:09;;;;;;;20.40;12.40;;;;;;;10.16;84.48;101461.31;100076;1292;107928;-66
2022/11/12 02:09:56;;;;;;;18.70;12.30;;;;;;;10.18;84.42;101462.85;100018;1292;139673;-66
2022/11/12 02:15:46;;;;;;;22.10;12.90;;;;;;;10.19;84.31;101457.10;101391;1288;138878;-66
2022/11/12 02:18:32;;;;;;;22.60;13.50;;;;;;;10.16;84.23;101460.79;101570;1295;110656;-66
2022/11/12 02:21:21;;;;;;;23.20;13.50;;;;;;;10.13;84.40;101455.96;101436;1298;139804;-66
2022/11/12 02:24:21;;;;;;;22.90;13.70;;;;;;;10.14;84.34;101453.85;101548;1290;96248;-66
2022/11/12 02:27:07;;;;;;;26.00;13.40;;;;;;;10.13;84.13;101455.09;100146;1295;139159;-66
2022/11/12 02:29:53;;;;;;;24.30;14.10;;;;;;;10.10;84.26;101452.17;101553;1295;97494;-66
2022/11/12 02:32:39;;;;;;;20.30;13.70;;;;;;;10.10;84.21;101456.01;101493;1287;110795;-67
2022/11/12 02:35:25;;;;;;;23.10;13.50;;;;;;;10.08;84.22;101457.94;101198;1289;110670;-66
2022/11/12 02:38:11;;;;;;;21.40;14.00;;;;;;;10.08;84.21;101459.68;100160;1283;97825;-68
2022/11/12 02:40:57;;;;;;;21.50;14.10;;;;;;;10.08;84.28;101457.59;100035;1291;138645;-67
2022/11/12 02:43:43;;;;;;;24.40;13.80;;;;;;;10.10;84.35;101460.17;100153;1289;97848;-66
2022/11/12 02:46:29;;;;;;;22.40;14.50;;;;;;;10.09;84.25;101461.75;99968;1290;138769;-66
2022/11/12 02:49:15;;;;;;;22.10;14.00;;;;;;;10.07;84.22;101463.51;100226;1295;106692;-66
2022/11/12 02:52:00;;;;;;;18.10;13.20;;;;;;;10.09;84.24;101464.17;99954;1289;138788;-66
2022/11/12 02:54:46;;;;;;;22.50;14.20;;;;;;;10.09;84.35;101462.61;100182;1294;108438;-66
2022/11/12 02:57:32;;;;;;;22.10;13.20;;;;;;;10.11;84.32;101462.77;99996;1295;138791;-68
2022/11/12 03:00:18;;;;;;;22.60;14.40;;;;;;;10.11;84.20;101462.25;101507;1295;112154;-65
2022/11/12 03:03:04;;;;;;;22.90;14.60;;;;;;;10.08;83.97;101461.41;101354;1295;139994;-66
2022/11/12 03:05:56;;;;;;;19.60;12.90;;;;;;;10.08;83.98;101464.20;101539;1297;95864;-66
2022/11/12 03:08:42;;;;;;;19.20;13.90;;;;;;;10.09;83.95;101466.79;101522;1289;108234;-66
2022/11/12 03:11:28;;;;;;;19.40;12.90;;;;;;;10.09;83.92;101471.12;101549;1290;97406;-66
2022/11/12 03:14:14;;;;;;;20.40;13.30;;;;;;;10.09;83.71;101470.95;101543;1297;111981;-66
2022/11/12 03:17:00;;;;;;;19.30;14.30;;;;;;;10.09;83.78;101475.30;101350;1296;140184;-66
2022/11/12 03:19:45;;;;;;;21.50;14.20;;;;;;;10.09;83.58;101476.52;101529;1297;95914;-66
2022/11/12 03:22:31;;;;;;;22.20;14.00;;;;;;;10.07;83.57;101480.36;101409;1292;138905;-66
2022/11/12 03:25:17;;;;;;;20.90;14.30;;;;;;;10.07;83.40;101479.48;100149;1289;97828;-67
2022/11/12 03:28:04;;;;;;;25.40;13.50;;;;;;;10.03;83.09;101482.30;101261;1296;193104;-66
2022/11/12 03:30:51;;;;;;;23.60;14.90;;;;;;;9.99;83.16;101486.69;100735;1281;106360;-66
2022/11/12 03:33:36;;;;;;;22.80;14.80;;;;;;;9.99;83.23;101485.82;100007;1288;139959;-66
2022/11/12 03:36:22;;;;;;;22.70;13.70;;;;;;;9.97;83.38;101480.97;100201;1290;106556;-68
2022/11/12 03:39:08;;;;;;;23.40;14.30;;;;;;;9.96;83.13;101489.67;101414;1289;138664;-66
2022/11/12 03:41:54;;;;;;;23.10;13.80;;;;;;;9.94;83.20;101494.73;101525;1296;111210;-66
2022/11/12 03:44:40;;;;;;;22.90;14.60;;;;;;;9.93;83.19;101493.70;101467;1293;107851;-66
2022/11/12 03:47:25;;;;;;;23.60;13.40;;;;;;;9.92;83.24;101491.11;101524;1288;96627;-66
2022/11/12 03:50:12;;;;;;;22.20;13.70;;;;;;;9.91;83.21;101489.38;101521;1289;106585;-66
2022/11/12 03:52:59;;;;;;;21.70;13.90;;;;;;;9.92;83.20;101488.67;101462;1278;139061;-66
2022/11/12 03:55:45;;;;;;;19.90;13.50;;;;;;;9.92;83.20;101483.29;101526;1295;111655;-67
2022/11/12 03:58:31;;;;;;;19.90;13.20;;;;;;;9.93;82.93;101483.45;101397;1271;138689;-67
2022/11/12 04:01:17;;;;;;;24.30;14.20;;;;;;;9.90;82.77;101482.45;100244;1294;99910;-69
2022/11/12 04:04:04;;;;;;;22.90;13.80;;;;;;;9.88;82.90;101479.33;100021;1290;138982;-67
2022/11/12 04:09:53;;;;;;;22.60;14.00;;;;;;;9.84;82.61;101477.63;99986;1285;138876;-67
2022/11/12 04:21:49;;;;;;;;;;;;;;;9.73;82.83;101475.30;99873;1289;138612;-67
2022/11/12 04:22:02;;;;;;;25.50;13.30;;;;;;;9.62;82.92;101480.27;100817;1294;138599;-67
2022/11/12 04:27:51;;;;;;;26.30;14.30;;;;;;;9.61;83.17;101475.58;101430;1288;139151;-67
2022/11/12 04:30:36;;;;;;;22.40;13.40;;;;;;;9.60;83.15;101475.76;101521;1295;95915;-67
2022/11/12 04:33:22;;;;;;;20.00;12.90;;;;;;;9.60;83.07;101476.10;101409;1289;138697;-67
2022/11/12 04:36:08;;;;;;;20.50;12.70;;;;;;;9.59;82.97;101473.34;101530;1297;95591;-67
2022/11/12 04:38:54;;;;;;;24.80;12.40;;;;;;;9.58;82.91;101474.05;101537;1295;112023;-67
2022/11/12 04:45:00;;;;;;;20.10;12.90;;;;;;;9.53;82.87;101473.23;100618;1292;99020;-66
2022/11/12 04:47:46;;;;;;;20.50;13.10;;;;;;;9.50;82.83;101466.27;100096;1288;107529;-67
2022/11/12 04:50:32;;;;;;;27.40;13.50;;;;;;;9.51;83.12;101468.53;100108;1288;97807;-67
2022/11/12 04:53:18;;;;;;;25.80;15.30;;;;;;;9.52;83.11;101468.55;99982;1289;139037;-67
2022/11/12 04:56:05;;;;;;;27.20;15.90;;;;;;;9.49;82.82;101473.07;100111;1289;108304;-69
2022/11/12 04:58:50;;;;;;;28.70;16.90;;;;;;;9.43;82.57;101471.56;101425;1297;138591;-67
2022/11/12 05:01:36;;;;;;;30.80;17.60;;;;;;;9.36;82.44;101470.59;101486;1288;105778;-66
2022/11/12 05:04:22;;;;;;;25.80;16.70;;;;;;;9.31;82.39;101476.34;101437;1296;138577;-67
2022/11/12 05:07:07;;;;;;;26.90;15.90;;;;;;;9.28;82.49;101483.82;101521;1296;110539;-67
2022/11/12 05:09:53;;;;;;;26.80;17.40;;;;;;;9.27;82.28;101479.48;101411;1288;138717;-67
2022/11/12 05:12:39;;;;;;;26.60;16.10;;;;;;;9.24;82.13;101476.40;101571;1295;96055;-67
2022/11/12 05:15:24;;;;;;;27.10;16.30;;;;;;;9.21;82.03;101482.15;101455;1287;139226;-67
2022/11/12 05:18:10;;;;;;;26.40;16.80;;;;;;;9.18;82.10;101481.31;101543;1289;95733;-67
2022/11/12 05:20:56;;;;;;;27.90;17.70;;;;;;;9.14;82.05;101486.52;101525;1284;111956;-67
2022/11/12 05:23:41;;;;;;;30.60;17.60;;;;;;;9.08;82.02;101485.17;101506;1295;108525;-67
2022/11/12 05:26:28;;;;;;;29.20;17.60;;;;;;;9.03;82.04;101481.57;101548;1288;97064;-67
2022/11/12 05:29:13;;;;;;;25.60;17.30;;;;;;;8.99;82.14;101478.64;101392;1296;139078;-67
2022/11/12 05:31:58;;;;;;;29.00;17.10;;;;;;;8.95;81.97;101484.20;101469;1294;95926;-67
2022/11/12 05:34:44;;;;;;;25.00;16.90;;;;;;;8.94;82.22;101489.59;101355;1288;139318;-67
2022/11/12 05:37:30;;;;;;;26.20;17.50;;;;;;;8.96;82.32;101491.82;101486;1282;107744;-67
2022/11/12 05:40:16;;;;;;;29.10;17.70;;;;;;;8.97;82.43;101495.80;101432;1295;138729;-67
2022/11/12 05:43:02;;;;;;;27.10;16.90;;;;;;;8.97;82.28;101500.67;101517;1296;106831;-67
2022/11/12 05:45:48;;;;;;;29.20;17.90;;;;;;;8.97;82.31;101502.74;101339;1297;138762;-67
2022/11/12 05:48:33;;;;;;;26.60;18.00;;;;;;;8.92;81.97;101500.35;101534;1289;110564;-67
2022/11/12 05:51:19;;;;;;;34.40;19.10;;;;;;;8.90;82.17;101498.29;101421;1289;138662;-67
2022/11/12 05:54:05;;;;;;;31.30;18.60;;;;;;;8.86;82.13;101505.08;101554;1288;95959;-67
2022/11/12 05:56:53;;;;;;;33.40;19.50;;;;;;;8.82;82.26;101511.35;101556;1288;106366;-67
2022/11/12 05:59:37;;;;;;;;;;;;;;;8.80;82.46;101513.09;101580;1292;95871;-67
2022/11/12 06:02:23;;;;;;;35.20;19.70;;;;;;;8.77;82.37;101513.77;101521;1292;111132;-67
2022/11/12 06:05:09;;;;;;;32.10;19.20;;;;;;;8.72;82.43;101518.66;101397;1295;138540;-67
2022/11/12 06:07:55;;;;;;;31.80;20.10;;;;;;;8.68;82.46;101520.94;101581;1293;95941;-67
2022/11/12 06:10:41;;;;;;;29.30;17.80;;;;;;;8.63;82.47;101519.23;101446;1281;139042;-68
2022/11/12 06:13:27;;;;;;;26.20;18.30;;;;;;;8.61;82.66;101518.36;101582;1296;95684;-68
2022/11/12 06:16:13;;;;;;;29.60;18.70;;;;;;;8.59;82.69;101518.88;101453;1295;138324;-67
2022/11/12 06:18:59;;;;;;;28.40;19.00;;;;;;;8.56;82.58;101520.27;101534;1296;107674;-67
2022/11/12 06:21:44;;;;;;;32.20;19.90;;;;;;;8.54;82.71;101521.33;101466;1281;139083;-67
2022/11/12 06:24:30;;;;;;;31.40;20.10;;;;;;;8.56;82.76;101522.52;101546;1292;107937;-67
2022/11/12 06:27:19;;;;;;;32.00;20.90;;;;;;;8.58;82.74;101523.05;101479;1289;138813;-67
2022/11/12 06:30:07;;;;;;;32.80;21.90;;;;;;;8.60;82.61;101525.63;101598;1292;110592;-67
2022/11/12 06:32:53;;;;;;;33.00;23.30;;;;;;;8.62;82.47;101527.21;101530;1297;106785;-67
2022/11/12 06:35:38;;;;;;;36.30;24.30;;;;;;;8.61;82.23;101525.98;100627;1288;97790;-67
2022/11/12 06:38:27;;;;;;;36.60;24.60;;;;;;;8.57;81.98;101528.08;101544;1295;109486;-67
2022/11/12 06:41:14;;;;;;;41.60;25.80;;;;;;;8.47;81.83;101527.08;101429;1288;138518;-67
2022/11/12 06:44:00;;;;;;;41.90;25.40;;;;;;;8.40;81.93;101526.05;101617;1288;112459;-67
2022/11/12 06:46:45;;;;;;;34.00;23.40;;;;;;;8.35;81.88;101528.66;101404;1296;138591;-67
2022/11/12 06:49:31;;;;;;;39.30;24.30;;;;;;;8.34;82.10;101533.87;100829;1289;97012;-67
2022/11/12 06:52:18;;;;;;;35.90;23.50;;;;;;;8.33;82.07;101540.45;100038;1282;138425;-67
2022/11/12 06:55:03;;;;;;;33.40;22.20;;;;;;;8.32;82.15;101541.65;100148;1282;97831;-66
2022/11/12 06:57:53;;;;;;;36.30;23.40;;;;;;;8.31;81.96;101538.36;100229;1291;139166;-66
2022/11/12 07:00:38;;;;;;;34.40;23.70;;;;;;;8.28;82.11;101543.73;100141;1289;109774;-66
2022/11/12 07:03:24;;;;;;;38.00;25.20;;;;;;;8.30;82.39;101545.98;100047;1292;139332;-67
2022/11/12 07:06:12;;;;;;;37.20;25.60;;;;;;;8.32;82.39;101550.31;100193;1288;107915;-67
2022/11/12 07:08:58;;;;;;;36.80;23.80;;;;;;;8.31;82.49;101550.48;100564;1289;98225;-66
2022/11/12 07:11:45;;;;;;;39.90;24.80;;;;;;;8.30;82.55;101550.84;100175;1289;110725;-66
2022/11/12 07:14:30;;;;;;;40.20;24.80;;;;;;;8.27;82.44;101553.63;100125;1281;108123;-67
2022/11/12 07:17:16;;;;;;;38.60;25.00;;;;;;;8.28;82.75;101556.05;100054;1292;138727;-67
2022/11/12 07:20:02;;;;;;;39.60;24.90;;;;;;;8.31;82.92;101557.94;100154;1294;108286;-67
2022/11/12 07:22:49;;;;;;;37.40;24.20;;;;;;;8.33;82.98;101555.87;100035;1293;139268;-67
2022/11/12 07:25:34;;;;;;;38.70;24.80;;;;;;;8.32;82.90;101559.32;101584;1289;111243;-67
2022/11/12 07:28:20;;;;;;;38.10;24.90;;;;;;;8.33;83.05;101558.29;101446;1296;139757;-67
2022/11/12 07:31:08;;;;;;;37.00;24.80;;;;;;;8.35;83.23;101559.16;100561;1289;97831;-67
2022/11/12 07:33:54;;;;;;;43.30;27.50;;;;;;;8.37;83.20;101556.39;100005;1289;138374;-67
2022/11/12 07:36:40;;;;;;;43.70;27.50;;;;;;;8.36;83.15;101556.39;100028;1289;98630;-67
2022/11/12 07:39:26;;;;;;;40.60;26.90;;;;;;;8.35;83.31;101554.31;99966;1292;138008;-67
2022/11/12 07:42:12;;;;;;;40.00;26.70;;;;;;;8.35;83.47;101564.20;100107;1288;107517;-67
2022/11/12 07:44:58;;;;;;;41.00;26.80;;;;;;;8.34;83.45;101566.11;100112;1296;97855;-67
2022/11/12 07:47:44;;;;;;;38.70;26.60;;;;;;;8.33;83.47;101570.24;100045;1289;108323;-67
2022/11/12 07:50:31;;;;;;;40.60;26.40;;;;;;;8.33;83.54;101568.70;100196;1288;97826;-67
2022/11/12 07:53:16;;;;;;;39.20;26.50;;;;;;;8.32;83.59;101569.38;100037;1291;138787;-67
2022/11/12 07:56:04;;;;;;;42.00;26.10;;;;;;;8.34;83.82;101566.43;100089;1289;108380;-67
2022/11/12 07:58:49;;;;;;;;;;;;;;;8.36;83.73;101565.23;101504;1289;138557;-67
2022/11/12 08:01:36;;;;;;;42.60;26.20;;;;;;;8.34;83.81;101561.25;101533;1288;107885;-67
2022/11/12 08:04:23;;;;;;;46.00;27.70;;;;;;;8.36;83.89;101560.38;101454;1288;138631;-67
2022/11/12 08:07:09;;;;;;;41.70;26.60;;;;;;;8.37;83.98;101559.68;101598;1297;111560;-67
2022/11/12 08:09:55;;;;;;;44.20;27.60;;;;;;;8.38;84.00;101561.93;100334;1282;138943;-69
2022/11/12 08:12:41;;;;;;;42.20;26.90;;;;;;;8.43;84.06;101562.97;100085;1291;98395;-67
2022/11/12 08:15:28;;;;;;;43.90;27.60;;;;;;;8.45;83.83;101563.15;100023;1291;139638;-69
2022/11/12 08:18:14;;;;;;;40.90;26.50;;;;;;;8.45;83.91;101563.67;100123;1295;97918;-70
2022/11/12 08:21:03;;;;;;;42.70;26.90;;;;;;;8.51;83.95;101562.77;100162;1289;112143;-68
2022/11/12 08:23:49;;;;;;;41.00;26.80;;;;;;;8.51;83.72;101564.34;101559;1288;105393;-68
2022/11/12 08:26:35;;;;;;;40.40;26.90;;;;;;;8.52;83.85;101569.19;101579;1288;95904;-69
2022/11/12 08:29:22;;;;;;;42.40;26.80;;;;;;;8.54;83.88;101573.50;100604;1288;139163;-69
2022/11/12 08:32:08;;;;;;;38.10;25.70;;;;;;;8.58;83.86;101566.38;100128;1288;97813;-70
2022/11/12 08:34:54;;;;;;;38.70;26.90;;;;;;;8.60;83.69;101568.11;99893;1289;138632;-69
2022/11/12 08:37:41;;;;;;;42.10;27.60;;;;;;;8.63;83.78;101570.38;99986;1282;106203;-69
2022/11/12 08:40:27;;;;;;;40.00;26.40;;;;;;;8.62;83.41;101571.06;99986;1291;138421;-69
2022/11/12 08:43:13;;;;;;;44.80;27.40;;;;;;;8.63;83.68;101576.79;100162;1289;107240;-67
2022/11/12 08:46:02;;;;;;;43.70;27.10;;;;;;;8.66;83.88;101575.40;100082;1289;138981;-70
2022/11/12 08:48:48;;;;;;;46.60;28.40;;;;;;;8.73;84.02;101574.67;101602;1288;110362;-68
2022/11/12 08:51:34;;;;;;;39.90;26.80;;;;;;;8.79;83.90;101580.54;101399;1289;138806;-67
2022/11/12 08:54:20;;;;;;;41.40;27.50;;;;;;;8.83;83.76;101580.20;100266;1288;99509;-68
2022/11/12 08:57:06;;;;;;;44.20;28.20;;;;;;;8.85;83.62;101584.00;100116;1288;108641;-68
2022/11/12 08:59:52;;;;;;;44.90;28.80;;;;;;;8.88;83.64;101581.55;101534;1292;97654;-68
2022/11/12 09:02:38;;;;;;;42.60;28.10;;;;;;;8.90;83.32;101579.63;101545;1291;110761;-68
2022/11/12 09:05:24;;;;;;;43.50;27.20;;;;;;;8.87;83.36;101582.94;101375;1289;140389;-68
2022/11/12 09:08:11;;;;;;;44.10;28.90;;;;;;;8.90;83.44;101585.17;101547;1291;96156;-68
2022/11/12 09:10:59;;;;;;;45.50;29.10;;;;;;;8.92;83.43;101591.59;101366;1289;139004;-68
2022/11/12 09:13:45;;;;;;;44.90;27.40;;;;;;;8.98;83.43;101594.70;100569;1289;97818;-68
2022/11/12 09:16:31;;;;;;;45.90;27.80;;;;;;;9.00;83.11;101594.00;100042;1282;138682;-67
2022/11/12 09:19:18;;;;;;;41.40;27.50;;;;;;;9.01;82.92;101593.64;101524;1283;107541;-68
2022/11/12 09:22:04;;;;;;;40.10;27.40;;;;;;;9.03;82.85;101600.75;101445;1296;138896;-68
2022/11/12 09:24:50;;;;;;;45.40;29.80;;;;;;;9.07;82.93;101605.06;101514;1294;107390;-67
2022/11/12 09:27:36;;;;;;;46.10;28.70;;;;;;;9.12;82.83;101603.66;101387;1296;139254;-68
2022/11/12 09:30:22;;;;;;;44.90;29.40;;;;;;;9.12;82.56;101600.00;101516;1283;111806;-68
2022/11/12 09:33:08;;;;;;;40.20;28.00;;;;;;;9.13;82.62;101600.35;101464;1288;105974;-70
2022/11/12 09:35:55;;;;;;;45.60;28.90;;;;;;;9.16;82.58;101596.36;101510;1289;96484;-67
2022/11/12 09:38:40;;;;;;;44.90;29.80;;;;;;;9.18;82.34;101597.91;101482;1296;107040;-68
2022/11/12 09:41:32;;;;;;;41.60;30.00;;;;;;;9.18;82.27;101600.34;101394;1296;137970;-68
2022/11/12 09:44:20;;;;;;;42.90;30.60;;;;;;;9.17;82.19;101601.73;101545;1288;110758;-67
2022/11/12 09:47:12;;;;;;;47.40;30.40;;;;;;;9.19;82.25;101600.17;101338;1282;139573;-68
2022/11/12 09:50:10;;;;;;;44.50;30.30;;;;;;;9.20;82.10;101600.33;101120;1288;98302;-68
2022/11/12 09:53:05;;;;;;;44.00;29.20;;;;;;;9.18;82.00;101602.95;101390;1288;138441;-68
2022/11/12 09:55:51;;;;;;;42.40;28.60;;;;;;;9.16;81.88;101605.56;101471;1295;95625;-69
2022/11/12 09:58:37;;;;;;;40.80;27.50;;;;;;;9.18;82.03;101608.85;101435;1288;139430;-69
2022/11/12 10:01:36;;;;;;;40.40;27.70;;;;;;;9.20;82.07;101604.50;100500;1281;107943;-68
2022/11/12 10:04:46;;;;;;;41.40;29.30;;;;;;;9.25;81.90;101603.59;100537;1288;138670;-69
2022/11/12 10:07:55;;;;;;;38.80;27.80;;;;;;;9.24;81.49;101603.95;101560;1289;107998;-68
2022/11/12 10:10:47;;;;;;;41.80;30.40;;;;;;;9.18;81.36;101607.11;101142;1297;139176;-68
2022/11/12 10:13:46;;;;;;;42.70;30.20;;;;;;;9.16;81.38;101613.88;100280;1296;111600;-68
2022/11/12 10:16:51;;;;;;;44.60;29.90;;;;;;;9.14;81.63;101609.01;99839;1296;139281;-68
2022/11/12 10:19:58;;;;;;;39.70;27.50;;;;;;;9.16;81.79;101600.70;100021;1288;97694;-68
2022/11/12 10:23:02;;;;;;;38.10;26.00;;;;;;;9.20;81.86;101606.23;101345;1289;138519;-67
2022/11/12 10:25:50;;;;;;;39.80;28.50;;;;;;;9.24;81.73;101614.01;101542;1296;96130;-69
2022/11/12 10:28:42;;;;;;;39.50;28.20;;;;;;;9.30;81.82;101617.96;101409;1289;138635;-67
2022/11/12 10:31:28;;;;;;;36.20;26.10;;;;;;;9.35;81.78;101623.52;101555;1295;107443;-67
2022/11/12 10:34:20;;;;;;;37.70;27.90;;;;;;;9.38;81.44;101619.16;101486;1289;139216;-67
2022/11/12 10:37:12;;;;;;;41.50;28.10;;;;;;;9.44;81.35;101625.36;101519;1296;107155;-67
2022/11/12 10:39:58;;;;;;;40.20;28.90;;;;;;;9.44;81.23;101622.75;101428;1289;138137;-68
2022/11/12 10:42:58;;;;;;;41.90;30.50;;;;;;;9.44;81.06;101624.50;101570;1289;110362;-68
2022/11/12 10:45:45;;;;;;;42.00;31.10;;;;;;;9.42;81.07;101625.72;101349;1292;138717;-68
2022/11/12 10:48:32;;;;;;;41.20;30.40;;;;;;;9.37;80.94;101622.80;101496;1296;95964;-69
2022/11/12 10:51:27;;;;;;;38.40;28.90;;;;;;;9.35;80.89;101618.48;101487;1283;106846;-68
2022/11/12 10:54:30;;;;;;;35.80;26.90;;;;;;;9.33;80.86;101620.20;101500;1296;95772;-68
2022/11/12 10:57:24;;;;;;;36.50;25.40;;;;;;;9.33;80.92;101618.29;101490;1291;111242;-67
2022/11/12 11:00:18;;;;;;;36.70;25.10;;;;;;;9.32;80.76;101619.52;101455;1288;110120;-67
2022/11/12 11:03:06;;;;;;;32.80;24.00;;;;;;;9.33;80.85;101616.90;101489;1281;96156;-67
2022/11/12 11:05:54;;;;;;;34.70;26.10;;;;;;;9.36;80.85;101619.69;101390;1294;138543;-68
2022/11/12 11:08:45;;;;;;;32.00;25.40;;;;;;;9.40;80.81;101623.83;101484;1289;95856;-68
2022/11/12 11:11:32;;;;;;;33.90;26.70;;;;;;;9.43;80.76;101622.77;101388;1288;138753;-68
2022/11/12 11:14:32;;;;;;;36.40;27.30;;;;;;;9.43;80.47;101625.36;101477;1289;107907;-67
2022/11/12 11:17:19;;;;;;;37.50;27.10;;;;;;;9.43;80.60;101625.54;101375;1289;138233;-68
2022/11/12 11:20:06;;;;;;;33.40;26.30;;;;;;;9.43;80.58;101623.98;101513;1289;107327;-67
2022/11/12 11:22:56;;;;;;;37.50;27.50;;;;;;;9.43;80.62;101619.98;101437;1289;138720;-69
2022/11/12 11:25:46;;;;;;;36.80;25.60;;;;;;;9.44;80.60;101621.90;101569;1288;112567;-67
2022/11/12 11:28:38;;;;;;;33.10;23.80;;;;;;;9.43;80.55;101621.38;100415;1288;138625;-67
2022/11/12 11:31:36;;;;;;;33.00;23.80;;;;;;;9.44;80.42;101621.89;100120;1289;97724;-67
2022/11/12 11:34:33;;;;;;;31.60;22.00;;;;;;;9.46;80.43;101620.48;101415;1288;138421;-68
2022/11/12 11:37:27;;;;;;;30.20;22.90;;;;;;;9.48;80.43;101617.86;101528;1291;96024;-67
2022/11/12 11:40:20;;;;;;;30.50;21.10;;;;;;;9.49;80.28;101626.36;101431;1291;139577;-67
2022/11/12 11:43:30;;;;;;;30.30;23.90;;;;;;;9.52;80.44;101625.50;101460;1289;107864;-68
2022/11/12 11:46:29;;;;;;;26.60;21.20;;;;;;;9.55;80.15;101626.36;101468;1291;141082;-67
2022/11/12 11:52:50;;;;;;;27.50;21.10;;;;;;;9.55;79.94;101631.21;94817;1284;138349;-68
2022/11/12 11:55:46;;;;;;;31.30;20.20;;;;;;;9.54;79.74;101631.74;99954;1293;112154;-67
2022/11/12 11:58:47;;;;;;;27.00;18.30;;;;;;;9.50;79.65;101628.96;101168;1297;138051;-67
2022/11/12 12:01:47;;;;;;;28.10;18.30;;;;;;;9.48;79.59;101626.72;101376;1297;96218;-68
2022/11/12 12:04:48;;;;;;;25.90;17.30;;;;;;;9.46;79.69;101629.52;101206;1298;139292;-68
2022/11/12 12:07:43;;;;;;;25.40;16.50;;;;;;;9.46;79.63;101626.73;101327;1297;95857;-67
2022/11/12 12:10:38;;;;;;;28.10;19.00;;;;;;;9.45;79.63;101620.84;101308;1303;139017;-68
2022/11/12 12:14:00;;;;;;;27.30;17.80;;;;;;;9.45;79.63;101620.66;101314;1285;107522;-67
2022/11/12 12:16:56;;;;;;;25.80;18.90;;;;;;;9.40;79.29;101622.62;101302;1299;139317;-67
2022/11/12 12:19:56;;;;;;;25.50;19.10;;;;;;;9.37;79.47;101621.42;100084;1291;108557;-67
2022/11/12 12:22:49;;;;;;;34.10;19.80;;;;;;;9.39;79.65;101624.70;99849;1299;138061;-68
2022/11/12 12:25:38;;;;;;;28.60;18.40;;;;;;;9.43;79.69;101619.11;101392;1288;112155;-68
2022/11/12 12:28:34;;;;;;;28.90;19.70;;;;;;;9.43;79.71;101624.67;100129;1292;138481;-67
2022/11/12 12:31:27;;;;;;;26.30;18.00;;;;;;;9.45;79.81;101618.06;99934;1299;98337;-66
2022/11/12 12:34:23;;;;;;;25.60;17.30;;;;;;;9.47;79.75;101609.02;99811;1299;138542;-66
2022/11/12 12:37:21;;;;;;;24.20;15.60;;;;;;;9.50;79.78;101616.81;99877;1299;97821;-67
2022/11/12 12:40:17;;;;;;;22.70;15.10;;;;;;;9.50;79.52;101610.90;99799;1290;139074;-67
2022/11/12 12:43:10;;;;;;;24.40;15.00;;;;;;;9.50;79.31;101614.72;101304;1300;108518;-67
2022/11/12 12:45:58;;;;;;;23.10;15.00;;;;;;;9.51;79.48;101612.12;101322;1297;138712;-67
2022/11/12 12:48:46;;;;;;;25.50;15.80;;;;;;;9.52;79.38;101614.39;101371;1297;107022;-67
2022/11/12 12:51:34;;;;;;;23.00;15.80;;;;;;;9.54;79.36;101618.37;101355;1297;96107;-68
2022/11/12 12:54:59;;;;;;;23.80;15.80;;;;;;;9.54;79.31;101613.52;101373;1297;112287;-67
2022/11/12 12:57:45;;;;;;;26.30;16.00;;;;;;;9.57;79.34;101612.95;100799;1302;138813;-67
2022/11/12 13:00:35;;;;;;;23.50;15.60;;;;;;;9.56;79.38;101619.75;100955;1304;96012;-68
2022/11/12 13:03:51;;;;;;;26.90;15.50;;;;;;;9.54;79.19;101616.46;100939;1303;107634;-67